sensor_id;sensor_type;location;lat;lon;timestamp;P1;durP1;ratioP1;P2;durP2;ratioP2
42244;SDS011;27912;51.828;5.688;2023-09-12T00:01:21;72.43;;;46.33;;
42244;SDS011;27912;51.828;5.688;2023-09-12T00:03:46;56.20;;;38.83;;
42244;SDS011;27912;51.828;5.688;2023-09-12T00:06:12;67.80;;;44.35;;
42244;SDS011;27912;51.828;5.688;2023-09-12T00:08:37;75.15;;;45.83;;
42244;SDS011;27912;51.828;5.688;2023-09-12T00:11:03;73.10;;;46.00;;
42244;SDS011;27912;51.828;5.688;2023-09-12T00:13:36;76.97;;;47.75;;
42244;SDS011;27912;51.828;5.688;2023-09-12T00:16:02;76.47;;;48.17;;
42244;SDS011;27912;51.828;5.688;2023-09-12T00:18:28;79.20;;;49.28;;
42244;SDS011;27912;51.828;5.688;2023-09-12T00:20:53;73.70;;;45.38;;
42244;SDS011;27912;51.828;5.688;2023-09-12T00:23:20;82.72;;;48.53;;
42244;SDS011;27912;51.828;5.688;2023-09-12T00:25:46;73.00;;;45.90;;
42244;SDS011;27912;51.828;5.688;2023-09-12T00:28:12;83.68;;;46.75;;
42244;SDS011;27912;51.828;5.688;2023-09-12T00:30:37;71.22;;;45.83;;
42244;SDS011;27912;51.828;5.688;2023-09-12T00:33:03;75.07;;;46.05;;
42244;SDS011;27912;51.828;5.688;2023-09-12T00:35:28;69.43;;;45.33;;
42244;SDS011;27912;51.828;5.688;2023-09-12T00:37:54;73.75;;;46.92;;
42244;SDS011;27912;51.828;5.688;2023-09-12T00:40:19;74.50;;;47.90;;
42244;SDS011;27912;51.828;5.688;2023-09-12T00:42:45;82.93;;;48.25;;
42244;SDS011;27912;51.828;5.688;2023-09-12T00:45:10;74.55;;;46.05;;
42244;SDS011;27912;51.828;5.688;2023-09-12T00:47:36;71.85;;;41.17;;
42244;SDS011;27912;51.828;5.688;2023-09-12T00:50:02;68.97;;;43.85;;
42244;SDS011;27912;51.828;5.688;2023-09-12T00:52:30;74.43;;;46.97;;
42244;SDS011;27912;51.828;5.688;2023-09-12T00:54:58;73.65;;;48.60;;
42244;SDS011;27912;51.828;5.688;2023-09-12T00:57:23;79.50;;;46.17;;
42244;SDS011;27912;51.828;5.688;2023-09-12T00:59:51;76.45;;;48.17;;
42244;SDS011;27912;51.828;5.688;2023-09-12T01:02:17;76.28;;;45.42;;
42244;SDS011;27912;51.828;5.688;2023-09-12T01:04:44;69.85;;;44.60;;
42244;SDS011;27912;51.828;5.688;2023-09-12T01:07:09;70.32;;;45.47;;
42244;SDS011;27912;51.828;5.688;2023-09-12T01:09:35;59.50;;;42.80;;
42244;SDS011;27912;51.828;5.688;2023-09-12T01:12:01;65.25;;;44.22;;
42244;SDS011;27912;51.828;5.688;2023-09-12T01:14:28;71.03;;;44.88;;
42244;SDS011;27912;51.828;5.688;2023-09-12T01:16:54;69.43;;;44.33;;
42244;SDS011;27912;51.828;5.688;2023-09-12T01:19:20;75.85;;;47.42;;
42244;SDS011;27912;51.828;5.688;2023-09-12T01:24:42;76.78;;;45.30;;
42244;SDS011;27912;51.828;5.688;2023-09-12T01:30:00;80.25;;;45.20;;
42244;SDS011;27912;51.828;5.688;2023-09-12T01:32:28;79.05;;;45.75;;
42244;SDS011;27912;51.828;5.688;2023-09-12T01:34:54;96.47;;;45.22;;
42244;SDS011;27912;51.828;5.688;2023-09-12T01:37:20;81.97;;;46.03;;
42244;SDS011;27912;51.828;5.688;2023-09-12T01:39:45;75.70;;;44.53;;
42244;SDS011;27912;51.828;5.688;2023-09-12T01:42:11;74.75;;;46.00;;
42244;SDS011;27912;51.828;5.688;2023-09-12T01:44:40;81.90;;;43.58;;
42244;SDS011;27912;51.828;5.688;2023-09-12T01:47:08;91.97;;;39.92;;
42244;SDS011;27912;51.828;5.688;2023-09-12T01:49:36;145.88;;;39.13;;
42244;SDS011;27912;51.828;5.688;2023-09-12T01:52:04;407.50;;;37.40;;
42244;SDS011;27912;51.828;5.688;2023-09-12T01:54:30;576.40;;;47.95;;
42244;SDS011;27912;51.828;5.688;2023-09-12T01:56:58;119.95;;;31.77;;
42244;SDS011;27912;51.828;5.688;2023-09-12T01:59:24;276.52;;;37.05;;
42244;SDS011;27912;51.828;5.688;2023-09-12T02:01:50;122.22;;;31.77;;
42244;SDS011;27912;51.828;5.688;2023-09-12T02:04:16;81.85;;;35.85;;
42244;SDS011;27912;51.828;5.688;2023-09-12T02:06:41;142.77;;;30.02;;
42244;SDS011;27912;51.828;5.688;2023-09-12T02:09:07;235.63;;;35.38;;
42244;SDS011;27912;51.828;5.688;2023-09-12T02:11:32;224.05;;;33.53;;
42244;SDS011;27912;51.828;5.688;2023-09-12T02:13:58;195.90;;;35.78;;
42244;SDS011;27912;51.828;5.688;2023-09-12T02:16:23;177.35;;;34.90;;
42244;SDS011;27912;51.828;5.688;2023-09-12T02:18:49;216.75;;;33.33;;
42244;SDS011;27912;51.828;5.688;2023-09-12T02:21:14;150.07;;;30.60;;
42244;SDS011;27912;51.828;5.688;2023-09-12T02:23:43;86.93;;;33.70;;
42244;SDS011;27912;51.828;5.688;2023-09-12T02:26:08;107.05;;;35.55;;
42244;SDS011;27912;51.828;5.688;2023-09-12T02:28:34;88.47;;;37.88;;
42244;SDS011;27912;51.828;5.688;2023-09-12T02:30:59;87.68;;;37.88;;
42244;SDS011;27912;51.828;5.688;2023-09-12T02:33:25;76.38;;;38.72;;
42244;SDS011;27912;51.828;5.688;2023-09-12T02:35:50;88.20;;;40.92;;
42244;SDS011;27912;51.828;5.688;2023-09-12T02:38:17;66.05;;;42.75;;
42244;SDS011;27912;51.828;5.688;2023-09-12T02:40:43;67.30;;;42.95;;
42244;SDS011;27912;51.828;5.688;2023-09-12T02:43:08;97.05;;;42.35;;
42244;SDS011;27912;51.828;5.688;2023-09-12T02:45:34;71.85;;;43.45;;
42244;SDS011;27912;51.828;5.688;2023-09-12T02:47:59;73.53;;;45.30;;
42244;SDS011;27912;51.828;5.688;2023-09-12T02:50:25;68.50;;;41.55;;
42244;SDS011;27912;51.828;5.688;2023-09-12T02:52:50;79.10;;;45.83;;
42244;SDS011;27912;51.828;5.688;2023-09-12T02:55:16;72.30;;;42.53;;
42244;SDS011;27912;51.828;5.688;2023-09-12T02:57:41;68.60;;;42.20;;
42244;SDS011;27912;51.828;5.688;2023-09-12T03:00:07;67.45;;;42.85;;
42244;SDS011;27912;51.828;5.688;2023-09-12T03:02:34;68.35;;;42.65;;
42244;SDS011;27912;51.828;5.688;2023-09-12T03:05:00;70.03;;;42.13;;
42244;SDS011;27912;51.828;5.688;2023-09-12T03:07:26;73.45;;;43.10;;
42244;SDS011;27912;51.828;5.688;2023-09-12T03:09:52;68.13;;;43.35;;
42244;SDS011;27912;51.828;5.688;2023-09-12T03:12:17;70.18;;;43.25;;
42244;SDS011;27912;51.828;5.688;2023-09-12T03:14:43;68.35;;;42.00;;
42244;SDS011;27912;51.828;5.688;2023-09-12T03:17:08;69.95;;;42.55;;
42244;SDS011;27912;51.828;5.688;2023-09-12T03:19:34;67.50;;;42.22;;
42244;SDS011;27912;51.828;5.688;2023-09-12T03:21:59;67.63;;;40.72;;
42244;SDS011;27912;51.828;5.688;2023-09-12T03:24:25;71.90;;;42.47;;
42244;SDS011;27912;51.828;5.688;2023-09-12T03:26:51;71.75;;;41.17;;
42244;SDS011;27912;51.828;5.688;2023-09-12T03:29:16;64.10;;;39.65;;
42244;SDS011;27912;51.828;5.688;2023-09-12T03:31:42;75.43;;;42.72;;
42244;SDS011;27912;51.828;5.688;2023-09-12T03:34:08;87.55;;;44.72;;
42244;SDS011;27912;51.828;5.688;2023-09-12T03:36:33;71.25;;;43.60;;
42244;SDS011;27912;51.828;5.688;2023-09-12T03:38:59;75.43;;;45.20;;
42244;SDS011;27912;51.828;5.688;2023-09-12T03:41:24;79.90;;;44.85;;
42244;SDS011;27912;51.828;5.688;2023-09-12T03:43:53;79.95;;;45.75;;
42244;SDS011;27912;51.828;5.688;2023-09-12T03:46:20;88.10;;;46.42;;
42244;SDS011;27912;51.828;5.688;2023-09-12T03:48:46;87.35;;;47.50;;
42244;SDS011;27912;51.828;5.688;2023-09-12T03:51:12;112.07;;;50.13;;
42244;SDS011;27912;51.828;5.688;2023-09-12T03:53:37;90.88;;;47.25;;
42244;SDS011;27912;51.828;5.688;2023-09-12T03:56:03;90.53;;;47.97;;
42244;SDS011;27912;51.828;5.688;2023-09-12T03:58:29;82.80;;;45.40;;
42244;SDS011;27912;51.828;5.688;2023-09-12T04:00:54;107.88;;;50.60;;
42244;SDS011;27912;51.828;5.688;2023-09-12T04:03:20;116.10;;;49.42;;
42244;SDS011;27912;51.828;5.688;2023-09-12T04:05:49;150.70;;;52.08;;
42244;SDS011;27912;51.828;5.688;2023-09-12T04:08:15;119.22;;;49.08;;
42244;SDS011;27912;51.828;5.688;2023-09-12T04:10:41;155.02;;;54.33;;
42244;SDS011;27912;51.828;5.688;2023-09-12T04:13:07;226.77;;;58.38;;
42244;SDS011;27912;51.828;5.688;2023-09-12T04:15:33;140.55;;;55.63;;
42244;SDS011;27912;51.828;5.688;2023-09-12T04:17:58;153.07;;;53.42;;
42244;SDS011;27912;51.828;5.688;2023-09-12T04:20:24;474.08;;;66.72;;
42244;SDS011;27912;51.828;5.688;2023-09-12T04:22:50;164.32;;;56.42;;
42244;SDS011;27912;51.828;5.688;2023-09-12T04:25:16;320.55;;;64.30;;
42244;SDS011;27912;51.828;5.688;2023-09-12T04:27:44;217.05;;;61.10;;
42244;SDS011;27912;51.828;5.688;2023-09-12T04:30:10;252.73;;;60.60;;
42244;SDS011;27912;51.828;5.688;2023-09-12T04:32:36;200.57;;;61.28;;
42244;SDS011;27912;51.828;5.688;2023-09-12T04:35:02;334.20;;;65.45;;
42244;SDS011;27912;51.828;5.688;2023-09-12T04:37:28;218.80;;;57.45;;
42244;SDS011;27912;51.828;5.688;2023-09-12T04:39:54;302.60;;;65.10;;
42244;SDS011;27912;51.828;5.688;2023-09-12T04:42:19;258.48;;;63.03;;
42244;SDS011;27912;51.828;5.688;2023-09-12T04:44:45;228.77;;;62.42;;
42244;SDS011;27912;51.828;5.688;2023-09-12T04:47:11;617.88;;;76.93;;
42244;SDS011;27912;51.828;5.688;2023-09-12T04:49:37;386.40;;;66.63;;
42244;SDS011;27912;51.828;5.688;2023-09-12T04:52:03;247.68;;;62.92;;
42244;SDS011;27912;51.828;5.688;2023-09-12T04:54:29;182.70;;;61.80;;
42244;SDS011;27912;51.828;5.688;2023-09-12T04:56:54;245.85;;;62.22;;
42244;SDS011;27912;51.828;5.688;2023-09-12T04:59:20;371.38;;;64.90;;
42244;SDS011;27912;51.828;5.688;2023-09-12T05:01:46;212.00;;;61.55;;
42244;SDS011;27912;51.828;5.688;2023-09-12T05:04:11;249.75;;;63.65;;
42244;SDS011;27912;51.828;5.688;2023-09-12T05:06:37;124.80;;;51.55;;
42244;SDS011;27912;51.828;5.688;2023-09-12T05:09:03;219.07;;;66.95;;
42244;SDS011;27912;51.828;5.688;2023-09-12T05:11:29;148.57;;;63.67;;
42244;SDS011;27912;51.828;5.688;2023-09-12T05:13:55;134.70;;;60.38;;
42244;SDS011;27912;51.828;5.688;2023-09-12T05:16:20;123.05;;;57.70;;
42244;SDS011;27912;51.828;5.688;2023-09-12T05:18:46;127.95;;;57.88;;
42244;SDS011;27912;51.828;5.688;2023-09-12T05:21:14;144.52;;;65.25;;
42244;SDS011;27912;51.828;5.688;2023-09-12T05:23:39;134.70;;;60.92;;
42244;SDS011;27912;51.828;5.688;2023-09-12T05:26:05;141.25;;;62.30;;
42244;SDS011;27912;51.828;5.688;2023-09-12T05:28:31;142.13;;;62.75;;
42244;SDS011;27912;51.828;5.688;2023-09-12T05:30:56;141.55;;;64.25;;
42244;SDS011;27912;51.828;5.688;2023-09-12T05:33:22;135.55;;;61.55;;
42244;SDS011;27912;51.828;5.688;2023-09-12T05:35:48;118.65;;;60.35;;
42244;SDS011;27912;51.828;5.688;2023-09-12T05:38:13;118.90;;;57.40;;
42244;SDS011;27912;51.828;5.688;2023-09-12T05:40:39;111.80;;;57.63;;
42244;SDS011;27912;51.828;5.688;2023-09-12T05:43:04;115.18;;;58.67;;
42244;SDS011;27912;51.828;5.688;2023-09-12T05:45:30;118.38;;;58.42;;
42244;SDS011;27912;51.828;5.688;2023-09-12T05:47:57;125.78;;;61.97;;
42244;SDS011;27912;51.828;5.688;2023-09-12T05:50:23;113.88;;;57.25;;
42244;SDS011;27912;51.828;5.688;2023-09-12T05:52:49;120.72;;;59.83;;
42244;SDS011;27912;51.828;5.688;2023-09-12T05:55:14;108.68;;;56.38;;
42244;SDS011;27912;51.828;5.688;2023-09-12T05:57:40;111.43;;;56.95;;
42244;SDS011;27912;51.828;5.688;2023-09-12T06:00:06;99.03;;;53.47;;
42244;SDS011;27912;51.828;5.688;2023-09-12T06:02:36;102.65;;;56.22;;
42244;SDS011;27912;51.828;5.688;2023-09-12T06:05:02;96.63;;;52.85;;
42244;SDS011;27912;51.828;5.688;2023-09-12T06:07:28;92.68;;;50.22;;
42244;SDS011;27912;51.828;5.688;2023-09-12T06:09:54;87.30;;;47.42;;
42244;SDS011;27912;51.828;5.688;2023-09-12T06:12:19;89.90;;;49.22;;
42244;SDS011;27912;51.828;5.688;2023-09-12T06:14:45;88.47;;;47.53;;
42244;SDS011;27912;51.828;5.688;2023-09-12T06:17:13;89.97;;;48.72;;
42244;SDS011;27912;51.828;5.688;2023-09-12T06:19:39;92.78;;;49.10;;
42244;SDS011;27912;51.828;5.688;2023-09-12T06:22:04;98.13;;;49.30;;
42244;SDS011;27912;51.828;5.688;2023-09-12T06:24:30;92.18;;;48.58;;
42244;SDS011;27912;51.828;5.688;2023-09-12T06:26:55;97.07;;;51.40;;
42244;SDS011;27912;51.828;5.688;2023-09-12T06:29:22;85.95;;;48.03;;
42244;SDS011;27912;51.828;5.688;2023-09-12T06:31:47;85.50;;;46.90;;
42244;SDS011;27912;51.828;5.688;2023-09-12T06:34:13;82.90;;;46.83;;
42244;SDS011;27912;51.828;5.688;2023-09-12T06:36:39;78.80;;;46.60;;
42244;SDS011;27912;51.828;5.688;2023-09-12T06:39:06;89.72;;;47.13;;
42244;SDS011;27912;51.828;5.688;2023-09-12T06:41:31;87.75;;;46.50;;
42244;SDS011;27912;51.828;5.688;2023-09-12T06:43:57;80.63;;;46.00;;
42244;SDS011;27912;51.828;5.688;2023-09-12T06:46:23;80.72;;;46.05;;
42244;SDS011;27912;51.828;5.688;2023-09-12T06:48:49;96.22;;;47.50;;
42244;SDS011;27912;51.828;5.688;2023-09-12T06:51:15;84.43;;;46.70;;
42244;SDS011;27912;51.828;5.688;2023-09-12T06:53:41;81.43;;;44.67;;
42244;SDS011;27912;51.828;5.688;2023-09-12T06:56:07;74.57;;;43.28;;
42244;SDS011;27912;51.828;5.688;2023-09-12T06:58:33;78.13;;;44.50;;
42244;SDS011;27912;51.828;5.688;2023-09-12T07:01:05;77.35;;;45.40;;
42244;SDS011;27912;51.828;5.688;2023-09-12T07:03:32;81.38;;;44.80;;
42244;SDS011;27912;51.828;5.688;2023-09-12T07:05:58;83.88;;;46.10;;
42244;SDS011;27912;51.828;5.688;2023-09-12T07:08:24;83.22;;;46.10;;
42244;SDS011;27912;51.828;5.688;2023-09-12T07:10:50;89.88;;;49.90;;
42244;SDS011;27912;51.828;5.688;2023-09-12T07:13:15;75.85;;;45.05;;
42244;SDS011;27912;51.828;5.688;2023-09-12T07:15:41;82.95;;;44.17;;
42244;SDS011;27912;51.828;5.688;2023-09-12T07:18:06;78.30;;;43.47;;
42244;SDS011;27912;51.828;5.688;2023-09-12T07:20:33;87.75;;;46.28;;
42244;SDS011;27912;51.828;5.688;2023-09-12T07:22:59;84.97;;;47.45;;
42244;SDS011;27912;51.828;5.688;2023-09-12T07:25:24;79.45;;;45.30;;
42244;SDS011;27912;51.828;5.688;2023-09-12T07:27:50;74.40;;;44.05;;
42244;SDS011;27912;51.828;5.688;2023-09-12T07:30:16;75.25;;;43.60;;
42244;SDS011;27912;51.828;5.688;2023-09-12T07:32:42;73.43;;;42.88;;
42244;SDS011;27912;51.828;5.688;2023-09-12T07:35:07;78.22;;;46.22;;
42244;SDS011;27912;51.828;5.688;2023-09-12T07:37:33;78.43;;;46.17;;
42244;SDS011;27912;51.828;5.688;2023-09-12T07:39:59;81.78;;;46.45;;
42244;SDS011;27912;51.828;5.688;2023-09-12T07:42:24;72.95;;;43.70;;
42244;SDS011;27912;51.828;5.688;2023-09-12T07:44:50;73.72;;;45.63;;
42244;SDS011;27912;51.828;5.688;2023-09-12T07:47:16;77.90;;;47.85;;
42244;SDS011;27912;51.828;5.688;2023-09-12T07:49:42;73.68;;;45.50;;
42244;SDS011;27912;51.828;5.688;2023-09-12T07:52:07;73.00;;;43.83;;
42244;SDS011;27912;51.828;5.688;2023-09-12T07:54:32;72.50;;;42.17;;
42244;SDS011;27912;51.828;5.688;2023-09-12T07:56:58;64.70;;;40.72;;
42244;SDS011;27912;51.828;5.688;2023-09-12T07:59:24;59.22;;;39.75;;
42244;SDS011;27912;51.828;5.688;2023-09-12T08:01:50;53.25;;;35.05;;
42244;SDS011;27912;51.828;5.688;2023-09-12T08:04:16;54.10;;;34.95;;
42244;SDS011;27912;51.828;5.688;2023-09-12T08:06:42;54.85;;;33.88;;
42244;SDS011;27912;51.828;5.688;2023-09-12T08:09:08;53.50;;;34.50;;
42244;SDS011;27912;51.828;5.688;2023-09-12T08:11:35;52.22;;;36.05;;
42244;SDS011;27912;51.828;5.688;2023-09-12T08:14:00;58.10;;;37.63;;
42244;SDS011;27912;51.828;5.688;2023-09-12T08:16:26;53.70;;;34.03;;
42244;SDS011;27912;51.828;5.688;2023-09-12T08:18:56;47.63;;;32.70;;
42244;SDS011;27912;51.828;5.688;2023-09-12T08:21:23;45.45;;;29.95;;
42244;SDS011;27912;51.828;5.688;2023-09-12T08:23:48;45.92;;;31.67;;
42244;SDS011;27912;51.828;5.688;2023-09-12T08:26:14;48.67;;;32.38;;
42244;SDS011;27912;51.828;5.688;2023-09-12T08:28:39;46.50;;;31.83;;
42244;SDS011;27912;51.828;5.688;2023-09-12T08:31:05;52.80;;;32.25;;
42244;SDS011;27912;51.828;5.688;2023-09-12T08:33:31;47.22;;;32.15;;
42244;SDS011;27912;51.828;5.688;2023-09-12T08:35:56;52.83;;;34.53;;
42244;SDS011;27912;51.828;5.688;2023-09-12T08:38:22;45.85;;;32.03;;
42244;SDS011;27912;51.828;5.688;2023-09-12T08:40:48;44.30;;;31.70;;
42244;SDS011;27912;51.828;5.688;2023-09-12T08:43:15;47.13;;;31.23;;
42244;SDS011;27912;51.828;5.688;2023-09-12T08:45:41;43.30;;;29.52;;
42244;SDS011;27912;51.828;5.688;2023-09-12T08:48:08;46.25;;;32.08;;
42244;SDS011;27912;51.828;5.688;2023-09-12T08:50:35;40.83;;;26.73;;
42244;SDS011;27912;51.828;5.688;2023-09-12T08:53:01;46.15;;;31.05;;
42244;SDS011;27912;51.828;5.688;2023-09-12T08:55:28;43.90;;;29.73;;
42244;SDS011;27912;51.828;5.688;2023-09-12T08:57:54;43.47;;;28.40;;
42244;SDS011;27912;51.828;5.688;2023-09-12T09:00:20;37.88;;;27.48;;
42244;SDS011;27912;51.828;5.688;2023-09-12T09:02:47;38.97;;;26.17;;
42244;SDS011;27912;51.828;5.688;2023-09-12T09:05:14;40.83;;;25.38;;
42244;SDS011;27912;51.828;5.688;2023-09-12T09:07:41;28.77;;;19.70;;
42244;SDS011;27912;51.828;5.688;2023-09-12T09:10:13;35.13;;;23.30;;
42244;SDS011;27912;51.828;5.688;2023-09-12T09:12:40;30.73;;;21.05;;
42244;SDS011;27912;51.828;5.688;2023-09-12T09:15:26;30.45;;;20.60;;
42244;SDS011;27912;51.828;5.688;2023-09-12T09:17:54;32.33;;;21.25;;
42244;SDS011;27912;51.828;5.688;2023-09-12T09:20:31;39.20;;;25.88;;
42244;SDS011;27912;51.828;5.688;2023-09-12T09:23:03;34.40;;;23.63;;
42244;SDS011;27912;51.828;5.688;2023-09-12T09:25:35;39.53;;;24.70;;
42244;SDS011;27912;51.828;5.688;2023-09-12T09:28:16;35.28;;;24.80;;
42244;SDS011;27912;51.828;5.688;2023-09-12T09:30:43;43.25;;;26.85;;
42244;SDS011;27912;51.828;5.688;2023-09-12T09:33:10;40.00;;;26.67;;
42244;SDS011;27912;51.828;5.688;2023-09-12T09:35:36;36.83;;;25.80;;
42244;SDS011;27912;51.828;5.688;2023-09-12T09:38:03;45.45;;;30.00;;
42244;SDS011;27912;51.828;5.688;2023-09-12T09:40:31;38.58;;;25.60;;
42244;SDS011;27912;51.828;5.688;2023-09-12T09:42:58;43.03;;;30.13;;
42244;SDS011;27912;51.828;5.688;2023-09-12T09:45:25;44.60;;;30.70;;
42244;SDS011;27912;51.828;5.688;2023-09-12T09:47:51;44.45;;;30.80;;
42244;SDS011;27912;51.828;5.688;2023-09-12T09:50:17;45.72;;;31.45;;
42244;SDS011;27912;51.828;5.688;2023-09-12T09:52:43;44.42;;;30.52;;
42244;SDS011;27912;51.828;5.688;2023-09-12T09:55:15;43.63;;;30.70;;
42244;SDS011;27912;51.828;5.688;2023-09-12T09:57:40;46.22;;;30.17;;
42244;SDS011;27912;51.828;5.688;2023-09-12T10:00:06;43.42;;;29.33;;
42244;SDS011;27912;51.828;5.688;2023-09-12T10:02:36;43.75;;;31.77;;
42244;SDS011;27912;51.828;5.688;2023-09-12T10:05:04;46.17;;;32.83;;
42244;SDS011;27912;51.828;5.688;2023-09-12T10:07:33;47.67;;;32.72;;
42244;SDS011;27912;51.828;5.688;2023-09-12T10:10:03;36.42;;;25.67;;
42244;SDS011;27912;51.828;5.688;2023-09-12T10:12:41;37.00;;;25.30;;
42244;SDS011;27912;51.828;5.688;2023-09-12T10:15:10;34.08;;;23.90;;
42244;SDS011;27912;51.828;5.688;2023-09-12T10:17:37;32.88;;;23.85;;
42244;SDS011;27912;51.828;5.688;2023-09-12T10:20:07;32.25;;;22.95;;
42244;SDS011;27912;51.828;5.688;2023-09-12T10:22:43;35.88;;;24.70;;
42244;SDS011;27912;51.828;5.688;2023-09-12T10:25:25;27.85;;;20.90;;
42244;SDS011;27912;51.828;5.688;2023-09-12T10:27:53;27.40;;;21.15;;
42244;SDS011;27912;51.828;5.688;2023-09-12T10:30:20;28.85;;;20.02;;
42244;SDS011;27912;51.828;5.688;2023-09-12T10:32:47;24.00;;;17.52;;
42244;SDS011;27912;51.828;5.688;2023-09-12T10:35:13;23.05;;;18.00;;
42244;SDS011;27912;51.828;5.688;2023-09-12T10:37:39;21.27;;;16.33;;
42244;SDS011;27912;51.828;5.688;2023-09-12T10:40:08;12.88;;;10.05;;
42244;SDS011;27912;51.828;5.688;2023-09-12T10:42:35;19.58;;;14.85;;
42244;SDS011;27912;51.828;5.688;2023-09-12T10:45:02;19.40;;;14.57;;
42244;SDS011;27912;51.828;5.688;2023-09-12T10:47:32;18.63;;;14.65;;
42244;SDS011;27912;51.828;5.688;2023-09-12T10:49:57;19.88;;;15.10;;
42244;SDS011;27912;51.828;5.688;2023-09-12T10:52:23;21.38;;;17.02;;
42244;SDS011;27912;51.828;5.688;2023-09-12T10:54:53;24.58;;;19.70;;
42244;SDS011;27912;51.828;5.688;2023-09-12T10:57:19;26.60;;;19.48;;
42244;SDS011;27912;51.828;5.688;2023-09-12T11:02:41;25.13;;;17.77;;
42244;SDS011;27912;51.828;5.688;2023-09-12T11:07:56;22.10;;;16.98;;
42244;SDS011;27912;51.828;5.688;2023-09-12T11:10:23;24.95;;;17.65;;
42244;SDS011;27912;51.828;5.688;2023-09-12T11:12:55;25.92;;;19.15;;
42244;SDS011;27912;51.828;5.688;2023-09-12T11:15:26;25.02;;;18.95;;
42244;SDS011;27912;51.828;5.688;2023-09-12T11:17:59;26.05;;;18.52;;
42244;SDS011;27912;51.828;5.688;2023-09-12T11:20:27;25.85;;;19.20;;
42244;SDS011;27912;51.828;5.688;2023-09-12T11:23:15;19.67;;;14.45;;
42244;SDS011;27912;51.828;5.688;2023-09-12T11:25:40;19.75;;;15.43;;
42244;SDS011;27912;51.828;5.688;2023-09-12T11:28:06;21.15;;;17.23;;
42244;SDS011;27912;51.828;5.688;2023-09-12T11:30:31;21.25;;;14.88;;
42244;SDS011;27912;51.828;5.688;2023-09-12T11:32:59;17.63;;;14.18;;
42244;SDS011;27912;51.828;5.688;2023-09-12T11:35:27;16.13;;;13.55;;
42244;SDS011;27912;51.828;5.688;2023-09-12T11:37:54;16.52;;;11.68;;
42244;SDS011;27912;51.828;5.688;2023-09-12T11:43:00;14.40;;;11.02;;
42244;SDS011;27912;51.828;5.688;2023-09-12T11:45:26;15.70;;;9.25;;
42244;SDS011;27912;51.828;5.688;2023-09-12T11:47:52;16.58;;;12.38;;
42244;SDS011;27912;51.828;5.688;2023-09-12T11:50:25;25.48;;;18.58;;
42244;SDS011;27912;51.828;5.688;2023-09-12T11:53:11;26.77;;;20.42;;
42244;SDS011;27912;51.828;5.688;2023-09-12T11:55:47;24.50;;;18.00;;
42244;SDS011;27912;51.828;5.688;2023-09-12T11:58:16;22.13;;;18.38;;
42244;SDS011;27912;51.828;5.688;2023-09-12T12:00:47;24.23;;;19.85;;
42244;SDS011;27912;51.828;5.688;2023-09-12T12:03:21;31.23;;;19.88;;
42244;SDS011;27912;51.828;5.688;2023-09-12T12:05:47;27.70;;;17.52;;
42244;SDS011;27912;51.828;5.688;2023-09-12T12:08:14;25.25;;;18.13;;
42244;SDS011;27912;51.828;5.688;2023-09-12T12:10:42;21.77;;;17.80;;
42244;SDS011;27912;51.828;5.688;2023-09-12T12:13:11;22.98;;;17.40;;
42244;SDS011;27912;51.828;5.688;2023-09-12T12:15:41;20.70;;;15.05;;
42244;SDS011;27912;51.828;5.688;2023-09-12T12:18:07;20.40;;;14.82;;
42244;SDS011;27912;51.828;5.688;2023-09-12T12:20:32;18.77;;;14.32;;
42244;SDS011;27912;51.828;5.688;2023-09-12T12:22:58;20.92;;;15.88;;
42244;SDS011;27912;51.828;5.688;2023-09-12T12:25:23;22.10;;;14.45;;
42244;SDS011;27912;51.828;5.688;2023-09-12T12:27:49;19.77;;;14.77;;
42244;SDS011;27912;51.828;5.688;2023-09-12T12:30:15;18.30;;;13.65;;
42244;SDS011;27912;51.828;5.688;2023-09-12T12:32:41;16.95;;;11.75;;
42244;SDS011;27912;51.828;5.688;2023-09-12T12:35:07;22.27;;;17.10;;
42244;SDS011;27912;51.828;5.688;2023-09-12T12:37:35;18.65;;;14.57;;
42244;SDS011;27912;51.828;5.688;2023-09-12T12:40:01;16.85;;;13.45;;
42244;SDS011;27912;51.828;5.688;2023-09-12T12:42:35;15.27;;;11.93;;
42244;SDS011;27912;51.828;5.688;2023-09-12T12:45:10;15.50;;;11.60;;
42244;SDS011;27912;51.828;5.688;2023-09-12T12:47:37;18.00;;;14.00;;
42244;SDS011;27912;51.828;5.688;2023-09-12T12:50:07;17.05;;;12.00;;
42244;SDS011;27912;51.828;5.688;2023-09-12T12:52:36;16.92;;;11.73;;
42244;SDS011;27912;51.828;5.688;2023-09-12T12:57:43;16.42;;;12.98;;
42244;SDS011;27912;51.828;5.688;2023-09-12T13:00:10;15.43;;;12.75;;
42244;SDS011;27912;51.828;5.688;2023-09-12T13:02:38;15.88;;;11.23;;
42244;SDS011;27912;51.828;5.688;2023-09-12T13:05:06;18.58;;;12.40;;
42244;SDS011;27912;51.828;5.688;2023-09-12T13:07:43;13.52;;;10.07;;
42244;SDS011;27912;51.828;5.688;2023-09-12T13:10:09;12.73;;;9.77;;
42244;SDS011;27912;51.828;5.688;2023-09-12T13:12:34;15.55;;;12.45;;
42244;SDS011;27912;51.828;5.688;2023-09-12T13:15:01;12.52;;;10.32;;
42244;SDS011;27912;51.828;5.688;2023-09-12T13:17:26;14.02;;;10.27;;
42244;SDS011;27912;51.828;5.688;2023-09-12T13:19:52;16.00;;;9.40;;
42244;SDS011;27912;51.828;5.688;2023-09-12T13:22:17;12.77;;;10.93;;
42244;SDS011;27912;51.828;5.688;2023-09-12T13:24:43;14.95;;;10.38;;
42244;SDS011;27912;51.828;5.688;2023-09-12T13:27:09;15.00;;;9.45;;
42244;SDS011;27912;51.828;5.688;2023-09-12T13:29:34;11.82;;;8.50;;
42244;SDS011;27912;51.828;5.688;2023-09-12T13:32:00;9.35;;;7.85;;
42244;SDS011;27912;51.828;5.688;2023-09-12T13:34:25;14.18;;;10.43;;
42244;SDS011;27912;51.828;5.688;2023-09-12T13:36:51;14.20;;;10.77;;
42244;SDS011;27912;51.828;5.688;2023-09-12T13:39:16;12.85;;;9.05;;
42244;SDS011;27912;51.828;5.688;2023-09-12T13:41:42;14.10;;;9.18;;
42244;SDS011;27912;51.828;5.688;2023-09-12T13:44:08;12.60;;;9.00;;
42244;SDS011;27912;51.828;5.688;2023-09-12T13:46:34;13.27;;;8.57;;
42244;SDS011;27912;51.828;5.688;2023-09-12T13:49:48;15.02;;;9.18;;
42244;SDS011;27912;51.828;5.688;2023-09-12T13:52:16;13.43;;;8.57;;
42244;SDS011;27912;51.828;5.688;2023-09-12T13:54:42;15.05;;;9.60;;
42244;SDS011;27912;51.828;5.688;2023-09-12T13:57:08;12.48;;;8.45;;
42244;SDS011;27912;51.828;5.688;2023-09-12T13:59:33;12.15;;;8.43;;
42244;SDS011;27912;51.828;5.688;2023-09-12T14:01:59;12.35;;;8.43;;
42244;SDS011;27912;51.828;5.688;2023-09-12T14:04:24;11.90;;;8.55;;
42244;SDS011;27912;51.828;5.688;2023-09-12T14:06:50;13.13;;;9.45;;
42244;SDS011;27912;51.828;5.688;2023-09-12T14:09:15;13.93;;;8.73;;
42244;SDS011;27912;51.828;5.688;2023-09-12T14:11:41;13.70;;;9.68;;
42244;SDS011;27912;51.828;5.688;2023-09-12T14:14:06;15.00;;;8.25;;
42244;SDS011;27912;51.828;5.688;2023-09-12T14:16:32;12.07;;;7.97;;
42244;SDS011;27912;51.828;5.688;2023-09-12T14:18:58;15.98;;;10.40;;
42244;SDS011;27912;51.828;5.688;2023-09-12T14:21:24;12.65;;;8.73;;
42244;SDS011;27912;51.828;5.688;2023-09-12T14:23:49;12.85;;;8.60;;
42244;SDS011;27912;51.828;5.688;2023-09-12T14:26:15;14.88;;;11.35;;
42244;SDS011;27912;51.828;5.688;2023-09-12T14:28:40;14.30;;;10.40;;
42244;SDS011;27912;51.828;5.688;2023-09-12T14:31:06;15.07;;;9.45;;
42244;SDS011;27912;51.828;5.688;2023-09-12T14:33:38;11.45;;;8.52;;
42244;SDS011;27912;51.828;5.688;2023-09-12T14:36:05;11.85;;;8.50;;